Time;durP1;ratioP1;P1;durP2;ratioP2;P2;SDS_P1;SDS_P2;PMS_P1;PMS_P2;Temp;Humidity;BMP_temperature;BMP_pressure;BME280_temperature;BME280_humidity;BME280_pressure;Samples;Min_cycle;Max_cycle;Signal;HPM_P1;HPM_P2
2022/06/22 00:00:18;;;;;;;27.38;6.22;;;;;;;;;;5032619;28;20040;-75
2022/06/22 00:02:46;;;;;;;25.95;5.68;;;;;;;;;;5028030;28;20044;-76
2022/06/22 00:05:17;;;;;;;29.48;6.03;;;;;;;;;;5025295;28;20044;-75
2022/06/22 00:07:50;;;;;;;26.42;5.05;;;;;;;;;;5016453;28;20039;-76
2022/06/22 00:10:17;;;;;;;29.13;5.88;;;;;;;;;;5032400;28;20034;-76
2022/06/22 00:12:48;;;;;;;38.88;6.25;;;;;;;;;;5024797;28;20125;-76
2022/06/22 00:15:22;;;;;;;26.98;5.15;;;;;;;;;;5033014;28;20593;-76
2022/06/22 00:17:48;;;;;;;24.15;5.03;;;;;;;;;;5019458;28;20041;-75
2022/06/22 00:20:25;;;;;;;31.13;5.40;;;;;;;;;;5032538;28;20487;-75
2022/06/22 00:23:11;;;;;;;21.67;5.15;;;;;;;;;;5031275;28;20065;-76
2022/06/22 00:25:39;;;;;;;26.65;5.82;;;;;;;;;;5013666;28;20050;-75
2022/06/22 00:28:44;;;;;;;25.85;5.30;;;;;;;;;;5031598;28;20745;-76
2022/06/22 00:31:14;;;;;;;29.88;5.30;;;;;;;;;;4990206;28;20038;-75
2022/06/22 00:34:00;;;;;;;30.30;5.82;;;;;;;;;;5001117;28;20495;-76
2022/06/22 00:36:29;;;;;;;28.33;6.03;;;;;;;;;;5023987;28;20483;-76
2022/06/22 00:38:55;;;;;;;26.67;4.65;;;;;;;;;;5024871;28;20029;-76
2022/06/22 00:41:22;;;;;;;30.63;6.88;;;;;;;;;;5031978;28;20402;-76
2022/06/22 00:43:49;;;;;;;32.15;5.70;;;;;;;;;;5030699;28;20042;-76
2022/06/22 00:46:18;;;;;;;27.98;5.45;;;;;;;;;;5012250;28;20049;-75
2022/06/22 00:48:46;;;;;;;29.45;5.55;;;;;;;;;;5012240;28;20026;-76
2022/06/22 00:51:17;;;;;;;25.50;6.03;;;;;;;;;;5011254;28;20479;-76
2022/06/22 00:53:45;;;;;;;25.93;7.17;;;;;;;;;;5030816;28;20467;-76
2022/06/22 00:56:17;;;;;;;27.95;6.47;;;;;;;;;;5030902;28;20041;-75
2022/06/22 00:59:02;;;;;;;31.20;7.47;;;;;;;;;;5031751;28;20030;-75
2022/06/22 01:01:35;;;;;;;31.45;9.07;;;;;;;;;;5030309;28;20048;-76
2022/06/22 01:04:13;;;;;;;33.63;8.13;;;;;;;;;;5024973;28;20084;-75
2022/06/22 01:06:42;;;;;;;31.25;5.88;;;;;;;;;;5021106;28;20042;-75
2022/06/22 01:09:07;;;;;;;33.25;5.60;;;;;;;;;;5030839;28;20033;-76
2022/06/22 01:14:26;;;;;;;29.17;5.95;;;;;;;;;;5022667;28;20057;-76
2022/06/22 01:16:54;;;;;;;29.85;5.60;;;;;;;;;;5022650;28;20033;-76
2022/06/22 01:19:26;;;;;;;36.10;6.70;;;;;;;;;;5029660;28;20032;-75
2022/06/22 01:21:52;;;;;;;;;;;;;;;;;;5018176;28;20128;-75
2022/06/22 01:24:20;;;;;;;33.25;5.85;;;;;;;;;;5031048;28;20593;-75
2022/06/22 01:27:07;;;;;;;28.30;6.57;;;;;;;;;;5016452;28;20075;-75
2022/06/22 01:29:33;;;;;;;32.92;6.78;;;;;;;;;;5014703;28;20072;-75
2022/06/22 01:32:04;;;;;;;32.20;6.57;;;;;;;;;;5030051;28;20041;-75
2022/06/22 01:34:39;;;;;;;29.63;6.03;;;;;;;;;;5016191;28;20041;-75
2022/06/22 01:37:06;;;;;;;29.02;5.30;;;;;;;;;;5017513;28;20371;-75
2022/06/22 01:39:33;;;;;;;32.25;5.63;;;;;;;;;;5022741;28;20471;-75
2022/06/22 01:42:09;;;;;;;31.40;5.53;;;;;;;;;;5027301;28;20033;-75
2022/06/22 01:44:41;;;;;;;22.52;4.72;;;;;;;;;;5030784;28;20044;-76
2022/06/22 01:47:26;;;;;;;34.97;6.28;;;;;;;;;;5021667;28;20398;-75
2022/06/22 01:49:52;;;;;;;27.23;5.43;;;;;;;;;;5011533;28;20030;-75
2022/06/22 01:52:36;;;;;;;35.60;6.20;;;;;;;;;;5015880;28;20029;-75
2022/06/22 01:55:05;;;;;;;33.72;5.72;;;;;;;;;;5026331;28;20112;-75
2022/06/22 01:57:35;;;;;;;34.50;6.47;;;;;;;;;;5012617;28;20070;-75
2022/06/22 02:00:12;;;;;;;33.80;6.30;;;;;;;;;;5022355;28;20049;-75
2022/06/22 02:02:50;;;;;;;30.45;6.03;;;;;;;;;;5012422;28;20143;-75
2022/06/22 02:05:22;;;;;;;28.45;6.25;;;;;;;;;;5025962;28;20030;-75
2022/06/22 02:08:02;;;;;;;26.73;6.60;;;;;;;;;;5013520;28;20030;-75
2022/06/22 02:10:46;;;;;;;35.05;8.23;;;;;;;;;;5012459;28;20037;-75
2022/06/22 02:13:31;;;;;;;30.17;8.80;;;;;;;;;;5013538;28;20093;-75
2022/06/22 02:15:57;;;;;;;31.98;7.55;;;;;;;;;;5010603;28;20800;-75
2022/06/22 02:18:29;;;;;;;28.63;6.97;;;;;;;;;;5023997;28;20037;-75
2022/06/22 02:20:58;;;;;;;29.83;7.43;;;;;;;;;;5018869;28;20041;-75
2022/06/22 02:23:35;;;;;;;34.70;6.43;;;;;;;;;;5016534;28;20434;-75
2022/06/22 02:26:10;;;;;;;27.70;6.10;;;;;;;;;;5023808;28;20045;-75
2022/06/22 02:28:36;;;;;;;28.58;5.07;;;;;;;;;;5011356;28;20112;-75
2022/06/22 02:31:02;;;;;;;30.70;5.90;;;;;;;;;;5019036;28;20037;-75
2022/06/22 02:33:29;;;;;;;25.15;5.63;;;;;;;;;;5014021;28;20037;-75
2022/06/22 02:35:56;;;;;;;34.78;6.75;;;;;;;;;;5024717;28;20037;-75
2022/06/22 02:38:22;;;;;;;30.45;5.45;;;;;;;;;;5029396;28;20068;-75
2022/06/22 02:46:22;;;;;;;41.63;6.53;;;;;;;;;;5016385;28;20049;-75
2022/06/22 02:48:53;;;;;;;36.85;7.85;;;;;;;;;;5010071;28;20520;-75
2022/06/22 02:51:23;;;;;;;27.25;6.30;;;;;;;;;;5027278;28;20057;-75
2022/06/22 02:53:49;;;;;;;29.23;5.65;;;;;;;;;;5018377;28;20026;-75
2022/06/22 02:56:23;;;;;;;31.77;6.53;;;;;;;;;;5013267;28;20033;-74
2022/06/22 02:58:49;;;;;;;39.20;8.57;;;;;;;;;;5020791;28;20029;-75
2022/06/22 03:01:17;;;;;;;27.05;5.43;;;;;;;;;;5022852;28;20083;-75
2022/06/22 03:03:46;;;;;;;31.40;5.72;;;;;;;;;;5029157;28;20060;-75
2022/06/22 03:06:13;;;;;;;26.55;6.55;;;;;;;;;;5008917;28;20100;-74
2022/06/22 03:08:39;;;;;;;28.90;5.40;;;;;;;;;;5012360;28;20041;-75
2022/06/22 03:11:07;;;;;;;29.15;6.43;;;;;;;;;;5020471;28;20044;-75
2022/06/22 03:13:48;;;;;;;23.10;5.00;;;;;;;;;;5009477;28;20042;-75
2022/06/22 03:16:34;;;;;;;21.77;5.70;;;;;;;;;;5018086;28;20056;-75
2022/06/22 03:19:02;;;;;;;32.42;7.05;;;;;;;;;;5010245;28;20366;-75
2022/06/22 03:21:28;;;;;;;25.35;5.72;;;;;;;;;;5018043;28;20034;-75
2022/06/22 03:24:07;;;;;;;34.33;7.38;;;;;;;;;;5027681;28;20055;-75
2022/06/22 03:26:41;;;;;;;31.42;6.32;;;;;;;;;;5028334;28;20037;-74
2022/06/22 03:29:31;;;;;;;28.95;6.38;;;;;;;;;;5014089;28;20152;-75
2022/06/22 03:32:00;;;;;;;33.58;6.47;;;;;;;;;;5012396;28;20551;-75
2022/06/22 03:34:37;;;;;;;30.45;6.38;;;;;;;;;;5025503;28;20025;-75
2022/06/22 03:37:17;;;;;;;24.95;5.43;;;;;;;;;;5020332;28;20045;-75
2022/06/22 03:39:45;;;;;;;38.00;6.78;;;;;;;;;;5021498;28;20034;-75
2022/06/22 03:42:15;;;;;;;25.13;5.53;;;;;;;;;;5028588;28;20083;-75
2022/06/22 03:44:46;;;;;;;33.92;6.55;;;;;;;;;;5026914;28;20044;-74
2022/06/22 03:47:15;;;;;;;28.35;5.78;;;;;;;;;;5019949;28;20033;-75
2022/06/22 03:49:46;;;;;;;23.05;5.07;;;;;;;;;;5029587;28;20036;-75
2022/06/22 03:52:26;;;;;;;26.40;5.67;;;;;;;;;;5028768;28;20557;-75
2022/06/22 03:54:52;;;;;;;27.95;4.95;;;;;;;;;;5018991;28;20263;-75
2022/06/22 03:57:20;;;;;;;30.80;5.70;;;;;;;;;;5028611;28;20102;-75
2022/06/22 03:59:47;;;;;;;19.90;4.80;;;;;;;;;;5015758;28;20464;-75
2022/06/22 04:02:14;;;;;;;30.77;6.05;;;;;;;;;;5019035;28;20037;-75
2022/06/22 04:04:40;;;;;;;29.45;7.05;;;;;;;;;;5022421;28;20528;-75
2022/06/22 04:07:06;;;;;;;34.50;6.43;;;;;;;;;;5009228;28;20523;-75
2022/06/22 04:09:33;;;;;;;29.02;6.65;;;;;;;;;;5009164;28;20754;-74
2022/06/22 04:12:11;;;;;;;30.65;6.47;;;;;;;;;;5009309;28;20034;-75
2022/06/22 04:14:40;;;;;;;31.00;6.45;;;;;;;;;;5019342;28;20064;-75
2022/06/22 04:17:10;;;;;;;32.13;6.25;;;;;;;;;;5026187;28;20029;-75
2022/06/22 04:19:41;;;;;;;30.88;7.60;;;;;;;;;;5009506;28;20033;-75
2022/06/22 04:22:14;;;;;;;32.27;6.67;;;;;;;;;;5008862;28;20045;-75
2022/06/22 04:24:47;;;;;;;28.92;6.95;;;;;;;;;;5016065;28;20085;-75
2022/06/22 04:27:39;;;;;;;31.45;6.32;;;;;;;;;;5028581;28;20033;-75
2022/06/22 04:30:05;;;;;;;;;;;;;;;;;;5017656;28;20100;-75
2022/06/22 04:32:35;;;;;;;26.20;6.00;;;;;;;;;;5010712;28;19921;-75
2022/06/22 04:35:26;;;;;;;27.77;5.75;;;;;;;;;;5019738;28;20057;-74
2022/06/22 04:37:55;;;;;;;23.77;5.68;;;;;;;;;;5028180;28;20029;-75
2022/06/22 04:40:28;;;;;;;33.72;6.28;;;;;;;;;;5019207;28;20037;-75
2022/06/22 04:42:58;;;;;;;31.15;7.00;;;;;;;;;;5026995;28;20037;-75
2022/06/22 04:45:26;;;;;;;27.05;5.78;;;;;;;;;;5030997;28;20033;-76
2022/06/22 04:47:53;;;;;;;33.10;7.28;;;;;;;;;;5024273;28;20044;-74
2022/06/22 04:50:19;;;;;;;24.63;5.75;;;;;;;;;;5019837;28;20030;-75
2022/06/22 04:52:48;;;;;;;29.13;6.88;;;;;;;;;;5013266;28;20089;-74
2022/06/22 04:55:18;;;;;;;35.83;7.07;;;;;;;;;;5028223;28;20033;-75
2022/06/22 04:57:47;;;;;;;29.42;6.43;;;;;;;;;;5015756;28;20030;-75
2022/06/22 05:00:15;;;;;;;30.95;6.00;;;;;;;;;;5017232;28;20092;-75
2022/06/22 05:02:42;;;;;;;22.63;5.30;;;;;;;;;;5024162;28;20687;-75
2022/06/22 05:05:15;;;;;;;32.42;6.45;;;;;;;;;;5017637;28;20033;-75
2022/06/22 05:07:56;;;;;;;33.20;6.53;;;;;;;;;;5026335;28;20495;-75
2022/06/22 05:10:42;;;;;;;34.47;8.05;;;;;;;;;;5030600;28;20473;-74
2022/06/22 05:13:14;;;;;;;31.02;8.10;;;;;;;;;;5012985;28;20104;-76
2022/06/22 05:15:42;;;;;;;39.22;7.57;;;;;;;;;;5021202;28;20048;-75
2022/06/22 05:18:13;;;;;;;33.95;7.95;;;;;;;;;;5018658;28;20056;-75
2022/06/22 05:21:03;;;;;;;41.58;10.88;;;;;;;;;;5025084;28;20034;-74
2022/06/22 05:23:30;;;;;;;40.30;8.75;;;;;;;;;;5001800;28;20120;-75
2022/06/22 05:25:57;;;;;;;36.20;7.47;;;;;;;;;;5027806;28;20045;-76
2022/06/22 05:28:23;;;;;;;45.53;7.97;;;;;;;;;;5021291;28;20034;-76
2022/06/22 05:30:53;;;;;;;31.52;6.65;;;;;;;;;;5013650;28;20387;-75
2022/06/22 05:33:21;;;;;;;37.03;7.20;;;;;;;;;;5015571;28;20025;-75
2022/06/22 05:35:53;;;;;;;33.95;7.13;;;;;;;;;;5023202;28;20514;-74
2022/06/22 05:38:19;;;;;;;;;;;;;;;;;;5019578;28;20026;-75
2022/06/22 05:40:46;;;;;;;33.22;6.55;;;;;;;;;;5017119;28;20363;-75
2022/06/22 05:43:13;;;;;;;39.30;8.07;;;;;;;;;;5024835;28;20797;-75
2022/06/22 05:45:51;;;;;;;44.13;10.40;;;;;;;;;;5021200;28;20125;-75
2022/06/22 05:48:19;;;;;;;51.22;12.55;;;;;;;;;;5021907;28;20026;-75
2022/06/22 05:50:53;;;;;;;44.97;9.10;;;;;;;;;;5024737;28;20048;-75
2022/06/22 05:53:42;;;;;;;42.33;8.93;;;;;;;;;;5026376;28;20040;-75
2022/06/22 05:56:20;;;;;;;29.52;7.00;;;;;;;;;;5026755;28;20037;-76
2022/06/22 05:58:59;;;;;;;35.75;8.02;;;;;;;;;;5020954;28;20476;-75
2022/06/22 06:01:25;;;;;;;34.80;7.05;;;;;;;;;;5014454;28;20557;-75
2022/06/22 06:03:58;;;;;;;31.90;7.43;;;;;;;;;;5016795;28;20034;-75
2022/06/22 06:06:26;;;;;;;40.78;7.55;;;;;;;;;;5018585;28;20037;-75
2022/06/22 06:08:54;;;;;;;31.27;7.35;;;;;;;;;;5026452;28;20041;-75
2022/06/22 06:11:23;;;;;;;37.33;8.48;;;;;;;;;;5018968;28;20277;-75
2022/06/22 06:13:51;;;;;;;33.65;6.80;;;;;;;;;;5018984;28;20037;-75
2022/06/22 06:16:21;;;;;;;32.08;7.55;;;;;;;;;;5012458;28;20440;-76
2022/06/22 06:18:48;;;;;;;43.03;9.00;;;;;;;;;;5016485;28;20025;-75
2022/06/22 06:21:16;;;;;;;34.08;6.20;;;;;;;;;;5015471;28;20034;-75
2022/06/22 06:23:44;;;;;;;34.60;8.13;;;;;;;;;;5020342;28;20508;-75
2022/06/22 06:29:08;;;;;;;35.70;10.65;;;;;;;;;;5017447;28;20453;-75
2022/06/22 06:32:03;;;;;;;31.73;9.82;;;;;;;;;;5017386;28;20045;-75
2022/06/22 06:34:34;;;;;;;33.08;9.02;;;;;;;;;;5009430;28;20038;-74
2022/06/22 06:37:06;;;;;;;34.50;8.45;;;;;;;;;;5026822;28;20616;-75
2022/06/22 06:39:34;;;;;;;36.10;9.63;;;;;;;;;;5019779;28;20439;-75
2022/06/22 06:42:06;;;;;;;54.35;25.10;;;;;;;;;;5023231;28;20037;-74
2022/06/22 06:44:32;;;;;;;;;;;;;;;;;;5018517;28;20033;-75
2022/06/22 06:47:05;;;;;;;57.70;26.35;;;;;;;;;;5026895;28;19932;-74
2022/06/22 06:50:00;;;;;;;34.35;10.90;;;;;;;;;;5013793;28;20041;-75
2022/06/22 06:52:33;;;;;;;38.40;7.25;;;;;;;;;;5019655;28;20052;-75
2022/06/22 06:55:01;;;;;;;29.55;7.25;;;;;;;;;;5016872;28;20475;-75
2022/06/22 06:57:29;;;;;;;30.23;7.60;;;;;;;;;;5021072;28;20512;-75
2022/06/22 06:59:57;;;;;;;29.33;7.55;;;;;;;;;;5023363;28;20029;-75
2022/06/22 07:02:27;;;;;;;31.35;8.15;;;;;;;;;;5027737;28;20029;-75
2022/06/22 07:04:54;;;;;;;38.70;7.75;;;;;;;;;;5018119;28;20034;-75
2022/06/22 07:07:26;;;;;;;34.67;6.93;;;;;;;;;;5023980;28;20387;-74
2022/06/22 07:09:53;;;;;;;30.92;6.75;;;;;;;;;;5023187;28;20410;-74
2022/06/22 07:12:29;;;;;;;29.48;7.32;;;;;;;;;;5021094;28;20037;-74
2022/06/22 07:14:58;;;;;;;35.72;9.73;;;;;;;;;;5026314;28;20106;-74
2022/06/22 07:17:25;;;;;;;41.50;16.67;;;;;;;;;;5022215;28;20841;-75
2022/06/22 07:19:51;;;;;;;45.75;21.27;;;;;;;;;;5021698;28;20059;-74
2022/06/22 07:22:20;;;;;;;33.78;10.27;;;;;;;;;;5023086;28;20037;-76
2022/06/22 07:24:51;;;;;;;35.45;9.25;;;;;;;;;;5016780;28;20124;-75
2022/06/22 07:27:36;;;;;;;35.90;8.25;;;;;;;;;;5025393;28;20037;-74
2022/06/22 07:30:09;;;;;;;34.45;6.70;;;;;;;;;;5013340;28;20466;-75
2022/06/22 07:32:41;;;;;;;31.65;7.75;;;;;;;;;;5021252;28;20075;-75
2022/06/22 07:35:16;;;;;;;31.02;8.38;;;;;;;;;;5026740;28;20446;-75
2022/06/22 07:38:01;;;;;;;35.58;7.05;;;;;;;;;;5013574;28;20029;-75
2022/06/22 07:40:28;;;;;;;29.35;6.82;;;;;;;;;;5027432;28;20194;-75
2022/06/22 07:42:55;;;;;;;37.42;6.50;;;;;;;;;;5024365;28;20392;-75
2022/06/22 07:45:23;;;;;;;33.35;7.63;;;;;;;;;;5015055;28;20042;-75
2022/06/22 07:47:55;;;;;;;39.40;9.57;;;;;;;;;;5021937;28;20258;-75
2022/06/22 07:50:41;;;;;;;38.67;9.07;;;;;;;;;;5022113;28;20052;-75
2022/06/22 07:53:15;;;;;;;37.88;8.75;;;;;;;;;;5027066;28;20091;-75
2022/06/22 07:55:47;;;;;;;34.13;6.65;;;;;;;;;;5029478;28;20084;-75
2022/06/22 07:58:13;;;;;;;;;;;;;;;;;;5018368;28;20379;-74
2022/06/22 08:00:40;;;;;;;32.60;7.68;;;;;;;;;;5025100;28;19917;-75
2022/06/22 08:03:13;;;;;;;37.92;7.95;;;;;;;;;;5024519;28;20033;-74
2022/06/22 08:05:42;;;;;;;38.30;8.45;;;;;;;;;;5021644;28;20622;-75
2022/06/22 08:08:17;;;;;;;31.83;5.90;;;;;;;;;;5018291;28;20041;-74
2022/06/22 08:10:52;;;;;;;29.15;6.55;;;;;;;;;;5020075;28;20502;-74
2022/06/22 08:13:22;;;;;;;34.08;6.90;;;;;;;;;;5021806;28;20039;-74
2022/06/22 08:15:54;;;;;;;32.63;6.88;;;;;;;;;;5019213;28;20041;-75
2022/06/22 08:18:20;;;;;;;34.20;8.27;;;;;;;;;;5020391;28;20033;-74
2022/06/22 08:20:48;;;;;;;34.38;7.47;;;;;;;;;;5030442;28;20030;-75
2022/06/22 08:23:16;;;;;;;40.05;8.05;;;;;;;;;;5029918;28;20091;-75
2022/06/22 08:25:44;;;;;;;31.60;7.85;;;;;;;;;;5024131;28;20045;-74
2022/06/22 08:28:13;;;;;;;29.88;6.28;;;;;;;;;;5018039;28;20072;-74
2022/06/22 08:30:40;;;;;;;32.13;7.53;;;;;;;;;;5017646;28;20030;-74
2022/06/22 08:33:07;;;;;;;32.65;7.10;;;;;;;;;;5023843;28;20041;-75
2022/06/22 08:35:37;;;;;;;35.88;7.28;;;;;;;;;;5021451;28;20037;-75
2022/06/22 08:38:18;;;;;;;34.70;7.85;;;;;;;;;;5019582;28;20029;-75
2022/06/22 08:40:53;;;;;;;37.47;8.68;;;;;;;;;;5022569;28;20476;-75
2022/06/22 08:43:25;;;;;;;31.20;6.57;;;;;;;;;;5028643;28;20063;-74
2022/06/22 08:46:04;;;;;;;33.50;7.50;;;;;;;;;;5029851;28;20050;-75
2022/06/22 08:48:54;;;;;;;42.05;6.95;;;;;;;;;;5013286;28;20484;-75
2022/06/22 08:51:20;;;;;;;39.53;8.55;;;;;;;;;;5013150;28;20071;-75
2022/06/22 08:53:46;;;;;;;40.17;8.15;;;;;;;;;;5017908;28;20037;-75
2022/06/22 08:56:18;;;;;;;42.25;7.95;;;;;;;;;;5029028;28;20026;-75
2022/06/22 08:59:03;;;;;;;33.28;7.25;;;;;;;;;;5014607;28;20038;-74
2022/06/22 09:01:40;;;;;;;34.90;7.15;;;;;;;;;;5035966;28;20030;-74
2022/06/22 09:04:23;;;;;;;30.13;5.57;;;;;;;;;;5026659;28;20037;-75
2022/06/22 09:06:49;;;;;;;32.38;6.68;;;;;;;;;;5029068;28;20065;-75
2022/06/22 09:09:21;;;;;;;29.17;6.03;;;;;;;;;;5016102;28;20033;-74
2022/06/22 09:11:47;;;;;;;;;;;;;;;;;;5030709;28;20040;-75
2022/06/22 09:14:33;;;;;;;27.83;5.65;;;;;;;;;;5018647;28;19917;-74
2022/06/22 09:16:59;;;;;;;31.63;5.95;;;;;;;;;;5029058;28;20046;-75
2022/06/22 09:19:39;;;;;;;26.60;6.13;;;;;;;;;;5029586;28;20107;-75
2022/06/22 09:22:24;;;;;;;26.13;6.20;;;;;;;;;;5036030;28;20072;-76
2022/06/22 09:25:13;;;;;;;36.90;6.38;;;;;;;;;;5020817;28;20054;-75
2022/06/22 09:27:44;;;;;;;30.98;5.40;;;;;;;;;;5015049;28;20076;-75
2022/06/22 09:30:10;;;;;;;27.37;5.57;;;;;;;;;;5027878;28;20098;-75
2022/06/22 09:32:42;;;;;;;30.35;5.60;;;;;;;;;;5028209;28;20061;-75
2022/06/22 09:35:08;;;;;;;;;;;;;;;;;;5017449;28;20036;-75
2022/06/22 09:37:43;;;;;;;31.80;5.38;;;;;;;;;;5035643;28;20011;-75
2022/06/22 09:40:19;;;;;;;30.98;5.50;;;;;;;;;;5022180;28;20037;-75
2022/06/22 09:43:04;;;;;;;30.70;5.93;;;;;;;;;;5028663;28;20057;-75
2022/06/22 09:45:53;;;;;;;30.35;6.13;;;;;;;;;;5025529;28;20481;-75
2022/06/22 09:48:30;;;;;;;28.65;5.85;;;;;;;;;;5026809;28;20044;-75
2022/06/22 09:51:15;;;;;;;34.90;5.78;;;;;;;;;;5025895;28;20040;-75
2022/06/22 09:53:41;;;;;;;27.40;6.38;;;;;;;;;;5027979;28;20049;-75
2022/06/22 09:56:27;;;;;;;30.60;5.85;;;;;;;;;;5018437;28;20044;-75
2022/06/22 09:59:05;;;;;;;38.08;6.53;;;;;;;;;;5026857;28;20029;-75
2022/06/22 10:01:34;;;;;;;29.73;6.18;;;;;;;;;;5020030;28;20045;-75
2022/06/22 10:04:20;;;;;;;44.58;5.70;;;;;;;;;;5025376;28;20044;-75
2022/06/22 10:07:08;;;;;;;30.70;6.25;;;;;;;;;;5024557;28;20069;-75
2022/06/22 10:09:40;;;;;;;29.75;5.65;;;;;;;;;;5026691;28;20026;-75
2022/06/22 10:12:24;;;;;;;31.67;5.60;;;;;;;;;;5018801;28;20674;-75
2022/06/22 10:15:09;;;;;;;26.20;5.65;;;;;;;;;;5023484;28;20033;-75
2022/06/22 10:17:35;;;;;;;30.17;5.55;;;;;;;;;;5020267;28;20558;-76
2022/06/22 10:20:14;;;;;;;28.23;6.30;;;;;;;;;;5028452;28;20112;-75
2022/06/22 10:22:46;;;;;;;26.75;5.05;;;;;;;;;;5023592;28;20076;-76
2022/06/22 10:25:38;;;;;;;31.77;5.70;;;;;;;;;;5013913;28;20049;-75
2022/06/22 10:28:23;;;;;;;30.98;6.13;;;;;;;;;;5003369;28;20061;-75
2022/06/22 10:31:09;;;;;;;27.98;5.45;;;;;;;;;;5018067;28;20029;-75
2022/06/22 10:33:44;;;;;;;27.15;6.18;;;;;;;;;;5024496;28;20228;-76
2022/06/22 10:36:26;;;;;;;25.25;4.95;;;;;;;;;;5025439;28;20072;-76
2022/06/22 10:39:01;;;;;;;25.27;5.85;;;;;;;;;;5022014;28;20025;-75
2022/06/22 10:47:31;;;;;;;25.05;5.72;;;;;;;;;;5021798;28;20040;-75
2022/06/22 10:50:03;;;;;;;31.55;5.93;;;;;;;;;;5020932;28;20116;-75
2022/06/22 10:52:35;;;;;;;38.75;6.25;;;;;;;;;;5023654;28;20052;-75
2022/06/22 10:55:10;;;;;;;29.02;5.72;;;;;;;;;;5017819;28;20133;-75
2022/06/22 10:57:48;;;;;;;25.67;5.65;;;;;;;;;;5015446;28;20041;-75
2022/06/22 11:00:28;;;;;;;33.35;6.10;;;;;;;;;;5023409;28;20063;-76
2022/06/22 11:03:15;;;;;;;28.45;5.90;;;;;;;;;;5022133;28;20033;-75
2022/06/22 11:05:46;;;;;;;29.13;5.65;;;;;;;;;;5022058;28;20034;-76
2022/06/22 11:08:31;;;;;;;27.13;5.82;;;;;;;;;;5023194;28;20109;-76
2022/06/22 11:10:59;;;;;;;28.85;6.63;;;;;;;;;;5027969;28;20044;-76
2022/06/22 11:13:35;;;;;;;35.22;7.15;;;;;;;;;;5013327;28;20041;-76
2022/06/22 11:16:10;;;;;;;28.15;6.88;;;;;;;;;;5019702;28;20041;-76
2022/06/22 11:18:48;;;;;;;35.00;6.90;;;;;;;;;;5019337;28;20029;-76
2022/06/22 11:21:17;;;;;;;23.95;6.03;;;;;;;;;;5026634;28;20364;-76
2022/06/22 11:23:56;;;;;;;24.90;4.93;;;;;;;;;;5027523;28;20470;-76
2022/06/22 11:32:52;;;;;;;22.65;5.18;;;;;;;;;;5014828;28;20129;-76
2022/06/22 11:35:21;;;;;;;25.63;5.15;;;;;;;;;;5022630;28;20037;-76
2022/06/22 11:38:06;;;;;;;30.42;6.10;;;;;;;;;;5021607;28;20072;-76
2022/06/22 11:40:50;;;;;;;23.05;4.88;;;;;;;;;;5015544;28;20048;-76
2022/06/22 11:43:28;;;;;;;28.67;5.85;;;;;;;;;;5020046;28;20071;-76
2022/06/22 11:45:54;;;;;;;28.13;5.13;;;;;;;;;;5018706;28;20044;-76
2022/06/22 11:48:41;;;;;;;32.15;5.45;;;;;;;;;;5023765;28;20045;-76
2022/06/22 11:51:07;;;;;;;30.65;5.38;;;;;;;;;;5018863;28;20506;-76
2022/06/22 11:53:52;;;;;;;24.13;5.32;;;;;;;;;;5032431;28;20038;-76
2022/06/22 11:56:24;;;;;;;31.65;5.88;;;;;;;;;;5026956;28;20104;-76
2022/06/22 11:59:00;;;;;;;29.70;5.65;;;;;;;;;;5019086;28;20558;-76
2022/06/22 12:01:52;;;;;;;29.90;6.32;;;;;;;;;;5030353;28;20367;-76
2022/06/22 12:04:24;;;;;;;26.52;5.93;;;;;;;;;;5023444;28;20060;-76
2022/06/22 12:07:07;;;;;;;27.60;5.70;;;;;;;;;;5032085;28;20160;-76
2022/06/22 12:09:36;;;;;;;29.13;6.25;;;;;;;;;;5023238;28;20065;-76
2022/06/22 12:12:08;;;;;;;25.08;5.40;;;;;;;;;;5026535;28;20124;-76
2022/06/22 12:17:33;;;;;;;29.33;6.20;;;;;;;;;;5020105;28;20134;-76
2022/06/22 12:19:59;;;;;;;28.52;5.60;;;;;;;;;;5022437;28;20108;-76
2022/06/22 12:22:31;;;;;;;32.47;5.45;;;;;;;;;;5025137;28;20482;-76
2022/06/22 12:25:02;;;;;;;29.60;6.25;;;;;;;;;;5027967;28;20059;-76
2022/06/22 12:27:28;;;;;;;;;;;;;;;;;;5029260;28;20037;-76
2022/06/22 12:30:19;;;;;;;20.98;4.63;;;;;;;;;;5031040;28;19924;-76
2022/06/22 12:32:48;;;;;;;25.92;5.93;;;;;;;;;;5030488;28;20048;-76
2022/06/22 12:35:18;;;;;;;39.05;6.55;;;;;;;;;;5030548;28;20032;-76
2022/06/22 12:37:48;;;;;;;30.30;6.20;;;;;;;;;;5025844;28;20040;-77
2022/06/22 12:40:16;;;;;;;33.05;6.07;;;;;;;;;;5023088;28;20471;-76
2022/06/22 12:42:51;;;;;;;31.27;5.60;;;;;;;;;;5019567;28;20092;-76
2022/06/22 12:45:41;;;;;;;26.58;5.53;;;;;;;;;;5014692;28;20379;-76
2022/06/22 12:48:25;;;;;;;29.15;5.13;;;;;;;;;;5020845;28;20034;-76
2022/06/22 12:50:55;;;;;;;23.23;5.15;;;;;;;;;;5028177;28;20045;-76
2022/06/22 12:53:25;;;;;;;29.13;5.13;;;;;;;;;;5029226;28;20045;-76
2022/06/22 12:56:00;;;;;;;23.95;5.20;;;;;;;;;;5023232;28;20369;-76
2022/06/22 12:58:40;;;;;;;35.53;6.10;;;;;;;;;;5029901;28;20037;-76
2022/06/22 13:01:06;;;;;;;26.33;5.82;;;;;;;;;;5027837;28;20034;-76
2022/06/22 13:03:40;;;;;;;28.30;5.40;;;;;;;;;;5027269;28;20029;-76
2022/06/22 13:06:06;;;;;;;25.42;4.18;;;;;;;;;;5021683;28;20376;-76
2022/06/22 13:08:32;;;;;;;34.13;5.53;;;;;;;;;;5019882;28;20554;-76
2022/06/22 13:11:00;;;;;;;27.42;5.50;;;;;;;;;;5030413;28;20029;-76
2022/06/22 13:13:44;;;;;;;22.55;4.63;;;;;;;;;;5030903;28;20068;-76
2022/06/22 13:16:22;;;;;;;31.50;5.28;;;;;;;;;;5017133;28;20032;-76
2022/06/22 13:18:54;;;;;;;29.17;5.95;;;;;;;;;;5029521;28;20398;-76
2022/06/22 13:21:32;;;;;;;27.55;5.38;;;;;;;;;;5027756;28;20029;-77
2022/06/22 13:24:02;;;;;;;28.40;5.38;;;;;;;;;;5030669;28;20123;-76
2022/06/22 13:26:46;;;;;;;22.83;4.50;;;;;;;;;;5031745;28;20029;-76
2022/06/22 13:29:25;;;;;;;25.42;5.43;;;;;;;;;;5027159;28;20083;-76
2022/06/22 13:31:53;;;;;;;25.27;5.93;;;;;;;;;;5021669;28;20040;-76
2022/06/22 13:34:21;;;;;;;25.23;5.40;;;;;;;;;;5023477;28;20037;-76
2022/06/22 13:37:04;;;;;;;32.42;6.68;;;;;;;;;;5030254;28;20025;-76
2022/06/22 13:39:49;;;;;;;26.88;6.50;;;;;;;;;;5030397;28;20108;-76
2022/06/22 13:42:25;;;;;;;24.20;5.43;;;;;;;;;;5019536;28;20112;-76
2022/06/22 13:45:10;;;;;;;24.95;5.35;;;;;;;;;;5020030;28;20041;-76
2022/06/22 13:47:36;;;;;;;27.00;5.75;;;;;;;;;;5025338;28;20037;-76
2022/06/22 13:50:17;;;;;;;31.63;6.55;;;;;;;;;;5027397;28;20375;-76
2022/06/22 13:52:50;;;;;;;26.20;5.53;;;;;;;;;;5027344;28;20524;-76
2022/06/22 13:55:25;;;;;;;29.45;6.07;;;;;;;;;;5024629;28;20332;-76
2022/06/22 13:57:57;;;;;;;33.20;7.13;;;;;;;;;;5024267;28;20035;-76
2022/06/22 14:00:26;;;;;;;23.15;5.60;;;;;;;;;;5023469;28;20033;-76
2022/06/22 14:02:59;;;;;;;28.20;5.15;;;;;;;;;;5024749;28;20037;-77
2022/06/22 14:05:44;;;;;;;25.83;5.32;;;;;;;;;;5022707;28;20036;-76
2022/06/22 14:08:22;;;;;;;29.70;6.43;;;;;;;;;;5024756;28;20033;-76
2022/06/22 14:10:48;;;;;;;33.25;6.10;;;;;;;;;;5019645;28;20476;-76
2022/06/22 14:13:25;;;;;;;33.92;6.68;;;;;;;;;;5026412;28;20045;-77
2022/06/22 14:15:54;;;;;;;28.95;6.18;;;;;;;;;;5027210;28;20022;-76
2022/06/22 14:18:20;;;;;;;30.95;6.35;;;;;;;;;;5029398;28;20033;-76
2022/06/22 14:20:47;;;;;;;31.58;6.63;;;;;;;;;;5024972;28;20030;-76
2022/06/22 14:23:17;;;;;;;35.28;6.35;;;;;;;;;;5028642;28;20061;-76
2022/06/22 14:25:49;;;;;;;29.70;5.95;;;;;;;;;;5026007;28;20038;-76
2022/06/22 14:28:25;;;;;;;26.58;6.03;;;;;;;;;;5024800;28;20117;-76
2022/06/22 14:30:57;;;;;;;24.63;5.63;;;;;;;;;;5027767;28;20036;-76
2022/06/22 14:33:42;;;;;;;35.88;7.13;;;;;;;;;;5014612;28;20049;-76
2022/06/22 14:36:26;;;;;;;33.00;6.65;;;;;;;;;;5025683;28;20348;-76
2022/06/22 14:39:01;;;;;;;34.05;7.07;;;;;;;;;;5028268;28;20491;-76
2022/06/22 14:41:39;;;;;;;36.00;5.95;;;;;;;;;;5026077;28;20042;-77
2022/06/22 14:44:12;;;;;;;27.58;5.68;;;;;;;;;;5026583;28;20135;-76
2022/06/22 14:46:41;;;;;;;26.75;5.82;;;;;;;;;;5020722;28;20366;-76
2022/06/22 14:49:20;;;;;;;29.98;5.63;;;;;;;;;;5023328;28;20068;-76
2022/06/22 14:52:02;;;;;;;36.17;6.82;;;;;;;;;;5024998;28;20391;-76
2022/06/22 14:54:34;;;;;;;33.72;6.22;;;;;;;;;;5018448;28;20045;-76
2022/06/22 14:57:03;;;;;;;26.60;5.75;;;;;;;;;;5027314;28;20031;-76
2022/06/22 14:59:54;;;;;;;28.95;6.50;;;;;;;;;;5025538;28;20666;-76
2022/06/22 15:02:31;;;;;;;28.60;6.03;;;;;;;;;;5028329;28;20029;-76
2022/06/22 15:05:21;;;;;;;30.75;5.60;;;;;;;;;;5028590;28;20041;-76
2022/06/22 15:08:05;;;;;;;29.02;5.88;;;;;;;;;;5026641;28;20755;-77
2022/06/22 15:10:45;;;;;;;28.60;6.65;;;;;;;;;;5025904;28;20257;-76
2022/06/22 15:13:29;;;;;;;26.20;5.78;;;;;;;;;;5025238;28;20039;-76
2022/06/22 15:16:04;;;;;;;34.35;6.72;;;;;;;;;;5026360;28;20865;-77
2022/06/22 15:18:48;;;;;;;28.35;5.80;;;;;;;;;;5019571;28;20029;-76
2022/06/22 15:21:21;;;;;;;28.02;6.05;;;;;;;;;;5015270;28;20033;-77
2022/06/22 15:24:02;;;;;;;33.90;7.57;;;;;;;;;;5023641;28;20091;-77
2022/06/22 15:26:41;;;;;;;29.60;5.50;;;;;;;;;;5022294;28;20033;-77
2022/06/22 15:29:25;;;;;;;32.33;5.90;;;;;;;;;;5027615;28;20067;-76
2022/06/22 15:32:03;;;;;;;33.40;7.03;;;;;;;;;;5028517;28;20069;-76
2022/06/22 15:34:52;;;;;;;35.85;6.50;;;;;;;;;;5021846;28;20033;-76
2022/06/22 15:37:27;;;;;;;36.03;6.28;;;;;;;;;;5018774;28;20045;-77